Lake Hallie, Wisconsin
Current Conditions -  °F | °C
As of 12:56 AM on Thursday 27 Nov 2014 (Local Time) from KEAU Reporting Station
Overcast Overcast  
Wind Chill:   Ceiling: 5500
Heat Index: 15°   Visibility: 10mi
Dew Point:   Wind: 9mph
Humidity: 70%   Direction: 340°NNW
Pressure: 30.33"   Gusts: NA
Location:  44.9743°N, 91.4379°W
Report Text: KEAU 270656Z AUTO 34008KT 10SM OVC055 M09/M14 A3033 RMK AO2 SNB02E21 SLP286 P0000 T10941139
Loading
Personal Weather Stations






























Interactive Weather Map New forecast layout! Learn more

10-Day Weather Forecast

Advertisements
Track Severe Weather on mobile